sensor_id;sensor_type;location;lat;lon;timestamp;P1;durP1;ratioP1;P2;durP2;ratioP2
17598;SDS011;8918;52.092;5.232;2023-05-19T00:01:26;6.87;;;3.90;;
17598;SDS011;8918;52.092;5.232;2023-05-19T00:03:56;8.57;;;4.13;;
17598;SDS011;8918;52.092;5.232;2023-05-19T00:06:27;6.93;;;4.03;;
17598;SDS011;8918;52.092;5.232;2023-05-19T00:09:05;8.27;;;4.27;;
17598;SDS011;8918;52.092;5.232;2023-05-19T00:11:34;10.77;;;3.73;;
17598;SDS011;8918;52.092;5.232;2023-05-19T00:14:02;7.73;;;3.80;;
17598;SDS011;8918;52.092;5.232;2023-05-19T00:16:30;8.33;;;3.80;;
17598;SDS011;8918;52.092;5.232;2023-05-19T00:18:56;9.00;;;4.13;;
17598;SDS011;8918;52.092;5.232;2023-05-19T00:21:24;10.17;;;4.30;;
17598;SDS011;8918;52.092;5.232;2023-05-19T00:23:50;8.13;;;3.60;;
17598;SDS011;8918;52.092;5.232;2023-05-19T00:26:15;9.57;;;4.17;;
17598;SDS011;8918;52.092;5.232;2023-05-19T00:28:41;7.67;;;3.90;;
17598;SDS011;8918;52.092;5.232;2023-05-19T00:31:07;7.60;;;4.10;;
17598;SDS011;8918;52.092;5.232;2023-05-19T00:33:32;10.90;;;4.40;;
17598;SDS011;8918;52.092;5.232;2023-05-19T00:35:59;7.67;;;3.90;;
17598;SDS011;8918;52.092;5.232;2023-05-19T00:38:29;9.77;;;4.10;;
17598;SDS011;8918;52.092;5.232;2023-05-19T00:40:55;8.80;;;4.50;;
17598;SDS011;8918;52.092;5.232;2023-05-19T00:43:21;8.33;;;3.87;;
17598;SDS011;8918;52.092;5.232;2023-05-19T00:45:47;7.27;;;3.30;;
17598;SDS011;8918;52.092;5.232;2023-05-19T00:48:13;8.33;;;3.97;;
17598;SDS011;8918;52.092;5.232;2023-05-19T00:50:38;7.97;;;4.17;;
17598;SDS011;8918;52.092;5.232;2023-05-19T00:53:05;8.20;;;4.20;;
17598;SDS011;8918;52.092;5.232;2023-05-19T00:55:31;7.07;;;4.20;;
17598;SDS011;8918;52.092;5.232;2023-05-19T00:57:58;9.23;;;4.10;;
17598;SDS011;8918;52.092;5.232;2023-05-19T01:00:24;9.20;;;4.20;;
17598;SDS011;8918;52.092;5.232;2023-05-19T01:02:50;7.33;;;3.77;;
17598;SDS011;8918;52.092;5.232;2023-05-19T01:05:15;10.03;;;4.23;;
17598;SDS011;8918;52.092;5.232;2023-05-19T01:07:41;7.10;;;4.20;;
17598;SDS011;8918;52.092;5.232;2023-05-19T01:10:08;10.53;;;4.23;;
17598;SDS011;8918;52.092;5.232;2023-05-19T01:12:34;7.63;;;4.07;;
17598;SDS011;8918;52.092;5.232;2023-05-19T01:15:00;8.47;;;3.97;;
17598;SDS011;8918;52.092;5.232;2023-05-19T01:17:36;6.57;;;4.50;;
17598;SDS011;8918;52.092;5.232;2023-05-19T01:31:03;12.17;;;4.80;;
17598;SDS011;8918;52.092;5.232;2023-05-19T01:33:31;7.87;;;4.30;;
17598;SDS011;8918;52.092;5.232;2023-05-19T01:35:58;10.13;;;4.57;;
17598;SDS011;8918;52.092;5.232;2023-05-19T01:38:27;9.23;;;3.93;;
17598;SDS011;8918;52.092;5.232;2023-05-19T01:40:53;12.10;;;4.50;;
17598;SDS011;8918;52.092;5.232;2023-05-19T01:43:23;9.43;;;4.37;;
17598;SDS011;8918;52.092;5.232;2023-05-19T01:45:50;10.03;;;4.70;;
17598;SDS011;8918;52.092;5.232;2023-05-19T01:48:17;8.67;;;4.23;;
17598;SDS011;8918;52.092;5.232;2023-05-19T01:50:43;9.97;;;4.07;;
17598;SDS011;8918;52.092;5.232;2023-05-19T01:53:10;7.90;;;4.77;;
17598;SDS011;8918;52.092;5.232;2023-05-19T01:55:44;7.13;;;4.23;;
17598;SDS011;8918;52.092;5.232;2023-05-19T02:04:16;9.40;;;4.50;;
17598;SDS011;8918;52.092;5.232;2023-05-19T02:14:39;10.03;;;5.10;;
17598;SDS011;8918;52.092;5.232;2023-05-19T02:17:13;9.37;;;4.77;;
17598;SDS011;8918;52.092;5.232;2023-05-19T02:19:42;8.73;;;4.53;;
17598;SDS011;8918;52.092;5.232;2023-05-19T02:22:08;7.83;;;4.47;;
17598;SDS011;8918;52.092;5.232;2023-05-19T02:24:34;7.80;;;4.83;;
17598;SDS011;8918;52.092;5.232;2023-05-19T02:27:01;10.67;;;4.73;;
17598;SDS011;8918;52.092;5.232;2023-05-19T02:29:27;8.90;;;4.43;;
17598;SDS011;8918;52.092;5.232;2023-05-19T02:31:52;10.00;;;4.83;;
17598;SDS011;8918;52.092;5.232;2023-05-19T02:34:18;10.07;;;4.77;;
17598;SDS011;8918;52.092;5.232;2023-05-19T02:36:43;11.37;;;5.07;;
17598;SDS011;8918;52.092;5.232;2023-05-19T02:39:09;11.13;;;4.93;;
17598;SDS011;8918;52.092;5.232;2023-05-19T02:41:36;8.97;;;4.70;;
17598;SDS011;8918;52.092;5.232;2023-05-19T02:44:02;13.00;;;5.13;;
17598;SDS011;8918;52.092;5.232;2023-05-19T02:46:28;8.93;;;4.63;;
17598;SDS011;8918;52.092;5.232;2023-05-19T02:48:54;9.37;;;5.00;;
17598;SDS011;8918;52.092;5.232;2023-05-19T02:51:19;8.83;;;4.90;;
17598;SDS011;8918;52.092;5.232;2023-05-19T02:53:45;9.13;;;4.73;;
17598;SDS011;8918;52.092;5.232;2023-05-19T02:56:10;7.47;;;4.70;;
17598;SDS011;8918;52.092;5.232;2023-05-19T02:58:36;8.50;;;4.30;;
17598;SDS011;8918;52.092;5.232;2023-05-19T03:01:02;12.07;;;5.30;;
17598;SDS011;8918;52.092;5.232;2023-05-19T03:03:27;7.50;;;4.60;;
17598;SDS011;8918;52.092;5.232;2023-05-19T03:05:53;9.40;;;5.10;;
17598;SDS011;8918;52.092;5.232;2023-05-19T03:08:19;10.93;;;5.07;;
17598;SDS011;8918;52.092;5.232;2023-05-19T03:10:45;10.53;;;5.00;;
17598;SDS011;8918;52.092;5.232;2023-05-19T03:13:10;7.90;;;4.63;;
17598;SDS011;8918;52.092;5.232;2023-05-19T03:15:37;8.67;;;4.83;;
17598;SDS011;8918;52.092;5.232;2023-05-19T03:18:02;8.43;;;4.70;;
17598;SDS011;8918;52.092;5.232;2023-05-19T03:20:28;7.03;;;4.80;;
17598;SDS011;8918;52.092;5.232;2023-05-19T03:22:57;10.90;;;5.70;;
17598;SDS011;8918;52.092;5.232;2023-05-19T03:25:22;9.07;;;5.07;;
17598;SDS011;8918;52.092;5.232;2023-05-19T03:27:48;11.50;;;5.00;;
17598;SDS011;8918;52.092;5.232;2023-05-19T03:30:14;10.47;;;5.40;;
17598;SDS011;8918;52.092;5.232;2023-05-19T03:32:40;9.57;;;5.60;;
17598;SDS011;8918;52.092;5.232;2023-05-19T03:35:05;8.83;;;5.27;;
17598;SDS011;8918;52.092;5.232;2023-05-19T03:37:31;9.87;;;5.27;;
17598;SDS011;8918;52.092;5.232;2023-05-19T03:39:57;9.43;;;5.60;;
17598;SDS011;8918;52.092;5.232;2023-05-19T03:42:23;11.93;;;5.27;;
17598;SDS011;8918;52.092;5.232;2023-05-19T03:44:49;10.67;;;5.50;;
17598;SDS011;8918;52.092;5.232;2023-05-19T03:47:15;8.13;;;5.27;;
17598;SDS011;8918;52.092;5.232;2023-05-19T03:49:41;12.57;;;5.73;;
17598;SDS011;8918;52.092;5.232;2023-05-19T03:52:06;10.67;;;5.43;;
17598;SDS011;8918;52.092;5.232;2023-05-19T03:54:33;10.53;;;5.13;;
17598;SDS011;8918;52.092;5.232;2023-05-19T03:56:59;10.67;;;5.60;;
17598;SDS011;8918;52.092;5.232;2023-05-19T03:59:26;12.50;;;6.10;;
17598;SDS011;8918;52.092;5.232;2023-05-19T04:01:51;12.00;;;5.80;;
17598;SDS011;8918;52.092;5.232;2023-05-19T04:04:17;12.80;;;5.70;;
17598;SDS011;8918;52.092;5.232;2023-05-19T04:06:43;11.33;;;5.70;;
17598;SDS011;8918;52.092;5.232;2023-05-19T04:09:10;9.37;;;5.50;;
17598;SDS011;8918;52.092;5.232;2023-05-19T04:11:37;11.50;;;5.50;;
17598;SDS011;8918;52.092;5.232;2023-05-19T04:14:03;10.63;;;5.70;;
17598;SDS011;8918;52.092;5.232;2023-05-19T04:16:29;10.17;;;5.33;;
17598;SDS011;8918;52.092;5.232;2023-05-19T04:18:55;10.00;;;5.67;;
17598;SDS011;8918;52.092;5.232;2023-05-19T04:21:20;8.37;;;5.57;;
17598;SDS011;8918;52.092;5.232;2023-05-19T04:23:46;13.00;;;6.30;;
17598;SDS011;8918;52.092;5.232;2023-05-19T04:26:12;13.33;;;6.20;;
17598;SDS011;8918;52.092;5.232;2023-05-19T04:28:38;9.87;;;5.87;;
17598;SDS011;8918;52.092;5.232;2023-05-19T04:31:06;10.40;;;5.87;;
17598;SDS011;8918;52.092;5.232;2023-05-19T04:33:34;13.03;;;6.00;;
17598;SDS011;8918;52.092;5.232;2023-05-19T04:36:01;13.00;;;5.93;;
17598;SDS011;8918;52.092;5.232;2023-05-19T04:38:29;10.07;;;6.40;;
17598;SDS011;8918;52.092;5.232;2023-05-19T04:40:55;15.07;;;5.80;;
17598;SDS011;8918;52.092;5.232;2023-05-19T04:43:20;12.37;;;6.13;;
17598;SDS011;8918;52.092;5.232;2023-05-19T04:45:46;9.53;;;5.73;;
17598;SDS011;8918;52.092;5.232;2023-05-19T04:48:14;11.93;;;6.30;;
17598;SDS011;8918;52.092;5.232;2023-05-19T04:50:40;11.07;;;6.47;;
17598;SDS011;8918;52.092;5.232;2023-05-19T04:53:07;10.73;;;6.00;;
17598;SDS011;8918;52.092;5.232;2023-05-19T04:55:33;10.57;;;6.10;;
17598;SDS011;8918;52.092;5.232;2023-05-19T04:57:58;10.77;;;6.07;;
17598;SDS011;8918;52.092;5.232;2023-05-19T05:00:24;10.23;;;5.87;;
17598;SDS011;8918;52.092;5.232;2023-05-19T05:02:50;10.93;;;6.17;;
17598;SDS011;8918;52.092;5.232;2023-05-19T05:05:16;10.10;;;6.10;;
17598;SDS011;8918;52.092;5.232;2023-05-19T05:07:41;14.23;;;6.77;;
17598;SDS011;8918;52.092;5.232;2023-05-19T05:10:07;12.33;;;6.70;;
17598;SDS011;8918;52.092;5.232;2023-05-19T05:12:33;12.40;;;6.20;;
17598;SDS011;8918;52.092;5.232;2023-05-19T05:14:59;11.27;;;6.60;;
17598;SDS011;8918;52.092;5.232;2023-05-19T05:17:25;13.00;;;6.13;;
17598;SDS011;8918;52.092;5.232;2023-05-19T05:19:52;11.27;;;6.30;;
17598;SDS011;8918;52.092;5.232;2023-05-19T05:22:18;13.00;;;6.20;;
17598;SDS011;8918;52.092;5.232;2023-05-19T05:24:43;12.67;;;6.40;;
17598;SDS011;8918;52.092;5.232;2023-05-19T05:27:10;10.90;;;6.90;;
17598;SDS011;8918;52.092;5.232;2023-05-19T05:29:35;11.83;;;6.20;;
17598;SDS011;8918;52.092;5.232;2023-05-19T05:32:01;10.23;;;6.60;;
17598;SDS011;8918;52.092;5.232;2023-05-19T05:34:26;12.57;;;6.37;;
17598;SDS011;8918;52.092;5.232;2023-05-19T05:36:52;12.83;;;6.43;;
17598;SDS011;8918;52.092;5.232;2023-05-19T05:39:18;12.03;;;6.43;;
17598;SDS011;8918;52.092;5.232;2023-05-19T05:41:43;11.70;;;6.37;;
17598;SDS011;8918;52.092;5.232;2023-05-19T05:44:09;10.70;;;6.20;;
17598;SDS011;8918;52.092;5.232;2023-05-19T05:46:34;9.83;;;6.07;;
17598;SDS011;8918;52.092;5.232;2023-05-19T05:49:00;13.27;;;6.77;;
17598;SDS011;8918;52.092;5.232;2023-05-19T05:51:26;8.73;;;5.80;;
17598;SDS011;8918;52.092;5.232;2023-05-19T05:53:52;9.50;;;6.13;;
17598;SDS011;8918;52.092;5.232;2023-05-19T05:56:19;12.13;;;6.27;;
17598;SDS011;8918;52.092;5.232;2023-05-19T05:58:46;10.63;;;5.93;;
17598;SDS011;8918;52.092;5.232;2023-05-19T06:01:11;9.63;;;6.33;;
17598;SDS011;8918;52.092;5.232;2023-05-19T06:03:40;22.77;;;12.83;;
17598;SDS011;8918;52.092;5.232;2023-05-19T06:06:09;12.73;;;6.23;;
17598;SDS011;8918;52.092;5.232;2023-05-19T06:08:35;9.37;;;5.63;;
17598;SDS011;8918;52.092;5.232;2023-05-19T06:11:01;10.70;;;6.20;;
17598;SDS011;8918;52.092;5.232;2023-05-19T06:13:34;8.73;;;5.50;;
17598;SDS011;8918;52.092;5.232;2023-05-19T06:16:00;10.07;;;5.50;;
17598;SDS011;8918;52.092;5.232;2023-05-19T06:18:26;11.87;;;5.87;;
17598;SDS011;8918;52.092;5.232;2023-05-19T06:20:52;10.17;;;5.83;;
17598;SDS011;8918;52.092;5.232;2023-05-19T06:23:17;11.37;;;6.10;;
17598;SDS011;8918;52.092;5.232;2023-05-19T06:25:43;7.10;;;5.20;;
17598;SDS011;8918;52.092;5.232;2023-05-19T06:28:08;10.23;;;4.83;;
17598;SDS011;8918;52.092;5.232;2023-05-19T06:30:34;9.27;;;5.10;;
17598;SDS011;8918;52.092;5.232;2023-05-19T06:33:00;11.30;;;5.40;;
17598;SDS011;8918;52.092;5.232;2023-05-19T06:35:27;11.07;;;5.80;;
17598;SDS011;8918;52.092;5.232;2023-05-19T06:37:53;10.10;;;6.03;;
17598;SDS011;8918;52.092;5.232;2023-05-19T06:40:20;10.20;;;5.60;;
17598;SDS011;8918;52.092;5.232;2023-05-19T06:42:46;9.73;;;5.40;;
17598;SDS011;8918;52.092;5.232;2023-05-19T06:45:12;9.57;;;5.73;;
17598;SDS011;8918;52.092;5.232;2023-05-19T06:47:37;10.93;;;5.40;;
17598;SDS011;8918;52.092;5.232;2023-05-19T06:50:06;8.00;;;5.07;;
17598;SDS011;8918;52.092;5.232;2023-05-19T06:52:32;6.83;;;4.90;;
17598;SDS011;8918;52.092;5.232;2023-05-19T06:54:58;8.43;;;5.23;;
17598;SDS011;8918;52.092;5.232;2023-05-19T06:57:23;9.67;;;5.27;;
17598;SDS011;8918;52.092;5.232;2023-05-19T06:59:49;10.57;;;5.10;;
17598;SDS011;8918;52.092;5.232;2023-05-19T07:02:14;7.90;;;4.77;;
17598;SDS011;8918;52.092;5.232;2023-05-19T07:04:40;9.40;;;4.90;;
17598;SDS011;8918;52.092;5.232;2023-05-19T07:07:06;7.77;;;4.90;;
17598;SDS011;8918;52.092;5.232;2023-05-19T07:09:32;7.43;;;4.87;;
17598;SDS011;8918;52.092;5.232;2023-05-19T07:11:58;9.63;;;4.87;;
17598;SDS011;8918;52.092;5.232;2023-05-19T07:14:23;9.33;;;4.87;;
17598;SDS011;8918;52.092;5.232;2023-05-19T07:16:49;9.40;;;5.07;;
17598;SDS011;8918;52.092;5.232;2023-05-19T07:19:14;10.10;;;4.83;;
17598;SDS011;8918;52.092;5.232;2023-05-19T07:21:40;9.80;;;4.57;;
17598;SDS011;8918;52.092;5.232;2023-05-19T07:24:06;8.53;;;4.70;;
17598;SDS011;8918;52.092;5.232;2023-05-19T07:26:32;8.60;;;4.33;;
17598;SDS011;8918;52.092;5.232;2023-05-19T07:28:57;8.47;;;4.40;;
17598;SDS011;8918;52.092;5.232;2023-05-19T07:31:23;11.10;;;4.77;;
17598;SDS011;8918;52.092;5.232;2023-05-19T07:33:48;6.80;;;3.93;;
17598;SDS011;8918;52.092;5.232;2023-05-19T07:36:14;6.30;;;3.97;;
17598;SDS011;8918;52.092;5.232;2023-05-19T07:38:40;8.27;;;3.83;;
17598;SDS011;8918;52.092;5.232;2023-05-19T07:41:05;6.43;;;3.80;;
17598;SDS011;8918;52.092;5.232;2023-05-19T07:43:31;8.63;;;4.00;;
17598;SDS011;8918;52.092;5.232;2023-05-19T07:45:56;10.17;;;3.80;;
17598;SDS011;8918;52.092;5.232;2023-05-19T07:48:22;7.37;;;3.80;;
17598;SDS011;8918;52.092;5.232;2023-05-19T07:50:49;8.03;;;3.83;;
17598;SDS011;8918;52.092;5.232;2023-05-19T07:53:16;9.00;;;3.67;;
17598;SDS011;8918;52.092;5.232;2023-05-19T07:55:42;6.67;;;3.60;;
17598;SDS011;8918;52.092;5.232;2023-05-19T07:58:07;10.47;;;3.90;;
17598;SDS011;8918;52.092;5.232;2023-05-19T08:00:33;7.30;;;4.00;;
17598;SDS011;8918;52.092;5.232;2023-05-19T08:02:59;6.65;;;3.90;;
17598;SDS011;8918;52.092;5.232;2023-05-19T08:05:25;8.00;;;3.97;;
17598;SDS011;8918;52.092;5.232;2023-05-19T08:07:51;6.97;;;3.30;;
17598;SDS011;8918;52.092;5.232;2023-05-19T08:10:16;6.60;;;2.80;;
17598;SDS011;8918;52.092;5.232;2023-05-19T08:12:42;5.22;;;3.20;;
17598;SDS011;8918;52.092;5.232;2023-05-19T08:15:08;7.70;;;3.28;;
17598;SDS011;8918;52.092;5.232;2023-05-19T08:17:35;9.88;;;3.17;;
17598;SDS011;8918;52.092;5.232;2023-05-19T08:20:02;7.30;;;2.92;;
17598;SDS011;8918;52.092;5.232;2023-05-19T08:22:30;5.95;;;3.00;;
17598;SDS011;8918;52.092;5.232;2023-05-19T08:24:55;9.52;;;3.40;;
17598;SDS011;8918;52.092;5.232;2023-05-19T08:27:25;6.25;;;3.50;;
17598;SDS011;8918;52.092;5.232;2023-05-19T08:29:50;7.88;;;3.00;;
17598;SDS011;8918;52.092;5.232;2023-05-19T08:32:16;7.53;;;3.30;;
17598;SDS011;8918;52.092;5.232;2023-05-19T08:34:42;5.18;;;2.97;;
17598;SDS011;8918;52.092;5.232;2023-05-19T08:37:07;6.35;;;2.85;;
17598;SDS011;8918;52.092;5.232;2023-05-19T08:39:33;4.57;;;2.95;;
17598;SDS011;8918;52.092;5.232;2023-05-19T08:41:59;7.40;;;2.88;;
17598;SDS011;8918;52.092;5.232;2023-05-19T08:44:25;6.68;;;2.90;;
17598;SDS011;8918;52.092;5.232;2023-05-19T08:46:52;6.95;;;2.95;;
17598;SDS011;8918;52.092;5.232;2023-05-19T08:49:25;6.40;;;2.95;;
17598;SDS011;8918;52.092;5.232;2023-05-19T08:51:57;6.82;;;2.78;;
17598;SDS011;8918;52.092;5.232;2023-05-19T08:54:45;5.32;;;2.78;;
17598;SDS011;8918;52.092;5.232;2023-05-19T08:57:35;5.60;;;2.60;;
17598;SDS011;8918;52.092;5.232;2023-05-19T09:00:03;4.95;;;2.65;;
17598;SDS011;8918;52.092;5.232;2023-05-19T09:02:33;6.70;;;2.38;;
17598;SDS011;8918;52.092;5.232;2023-05-19T09:05:00;8.30;;;2.90;;
17598;SDS011;8918;52.092;5.232;2023-05-19T09:07:27;6.28;;;2.80;;
17598;SDS011;8918;52.092;5.232;2023-05-19T09:09:55;6.07;;;2.75;;
17598;SDS011;8918;52.092;5.232;2023-05-19T09:12:20;7.35;;;2.83;;
17598;SDS011;8918;52.092;5.232;2023-05-19T09:14:46;4.85;;;2.30;;
17598;SDS011;8918;52.092;5.232;2023-05-19T09:17:12;5.63;;;2.58;;
17598;SDS011;8918;52.092;5.232;2023-05-19T09:19:43;7.60;;;2.63;;
17598;SDS011;8918;52.092;5.232;2023-05-19T09:22:09;5.60;;;2.30;;
17598;SDS011;8918;52.092;5.232;2023-05-19T09:24:35;6.65;;;2.53;;
17598;SDS011;8918;52.092;5.232;2023-05-19T09:27:02;7.80;;;2.40;;
17598;SDS011;8918;52.092;5.232;2023-05-19T09:29:28;5.28;;;2.60;;
17598;SDS011;8918;52.092;5.232;2023-05-19T09:31:54;6.13;;;2.40;;
17598;SDS011;8918;52.092;5.232;2023-05-19T09:34:24;6.47;;;2.38;;
17598;SDS011;8918;52.092;5.232;2023-05-19T09:36:51;5.38;;;2.47;;
17598;SDS011;8918;52.092;5.232;2023-05-19T09:39:18;5.50;;;2.30;;
17598;SDS011;8918;52.092;5.232;2023-05-19T09:41:45;4.50;;;2.50;;
17598;SDS011;8918;52.092;5.232;2023-05-19T09:44:12;5.22;;;2.35;;
17598;SDS011;8918;52.092;5.232;2023-05-19T09:46:51;4.85;;;2.63;;
17598;SDS011;8918;52.092;5.232;2023-05-19T09:49:20;6.97;;;2.50;;
17598;SDS011;8918;52.092;5.232;2023-05-19T09:51:52;6.05;;;2.78;;
17598;SDS011;8918;52.092;5.232;2023-05-19T09:54:19;6.85;;;2.63;;
17598;SDS011;8918;52.092;5.232;2023-05-19T09:56:50;4.28;;;2.53;;
17598;SDS011;8918;52.092;5.232;2023-05-19T09:59:26;6.90;;;2.75;;
17598;SDS011;8918;52.092;5.232;2023-05-19T10:01:53;6.70;;;2.95;;
17598;SDS011;8918;52.092;5.232;2023-05-19T10:04:21;4.35;;;2.67;;
17598;SDS011;8918;52.092;5.232;2023-05-19T10:06:51;5.28;;;2.65;;
17598;SDS011;8918;52.092;5.232;2023-05-19T10:09:21;6.20;;;2.83;;
17598;SDS011;8918;52.092;5.232;2023-05-19T10:11:50;8.82;;;2.80;;
17598;SDS011;8918;52.092;5.232;2023-05-19T10:14:17;7.18;;;2.70;;
17598;SDS011;8918;52.092;5.232;2023-05-19T10:16:48;7.97;;;3.35;;
17598;SDS011;8918;52.092;5.232;2023-05-19T10:19:15;7.65;;;2.92;;
17598;SDS011;8918;52.092;5.232;2023-05-19T10:21:41;6.03;;;2.60;;
17598;SDS011;8918;52.092;5.232;2023-05-19T10:24:07;6.07;;;2.97;;
17598;SDS011;8918;52.092;5.232;2023-05-19T10:26:33;9.48;;;3.08;;
17598;SDS011;8918;52.092;5.232;2023-05-19T10:28:59;5.93;;;2.78;;
17598;SDS011;8918;52.092;5.232;2023-05-19T10:31:26;6.70;;;2.75;;
17598;SDS011;8918;52.092;5.232;2023-05-19T10:33:55;5.20;;;2.65;;
17598;SDS011;8918;52.092;5.232;2023-05-19T10:36:43;5.15;;;2.45;;
17598;SDS011;8918;52.092;5.232;2023-05-19T10:39:15;5.78;;;2.80;;
17598;SDS011;8918;52.092;5.232;2023-05-19T10:41:51;4.47;;;2.70;;
17598;SDS011;8918;52.092;5.232;2023-05-19T10:44:44;5.82;;;2.70;;
17598;SDS011;8918;52.092;5.232;2023-05-19T10:47:10;5.13;;;2.78;;
17598;SDS011;8918;52.092;5.232;2023-05-19T10:49:36;5.68;;;2.75;;
17598;SDS011;8918;52.092;5.232;2023-05-19T10:52:03;5.72;;;2.70;;
17598;SDS011;8918;52.092;5.232;2023-05-19T10:54:47;5.93;;;2.70;;
17598;SDS011;8918;52.092;5.232;2023-05-19T10:57:14;5.20;;;2.67;;
17598;SDS011;8918;52.092;5.232;2023-05-19T10:59:41;4.78;;;2.50;;
17598;SDS011;8918;52.092;5.232;2023-05-19T11:02:10;5.50;;;2.95;;
17598;SDS011;8918;52.092;5.232;2023-05-19T11:05:06;7.40;;;2.80;;
17598;SDS011;8918;52.092;5.232;2023-05-19T11:07:37;5.15;;;2.67;;
17598;SDS011;8918;52.092;5.232;2023-05-19T11:10:06;6.22;;;2.80;;
17598;SDS011;8918;52.092;5.232;2023-05-19T11:12:39;5.82;;;2.83;;
17598;SDS011;8918;52.092;5.232;2023-05-19T11:15:09;7.93;;;3.30;;
17598;SDS011;8918;52.092;5.232;2023-05-19T11:17:38;6.55;;;2.95;;
17598;SDS011;8918;52.092;5.232;2023-05-19T11:20:06;3.63;;;2.55;;
17598;SDS011;8918;52.092;5.232;2023-05-19T11:22:35;7.43;;;3.08;;
17598;SDS011;8918;52.092;5.232;2023-05-19T11:25:01;6.00;;;2.83;;
17598;SDS011;8918;52.092;5.232;2023-05-19T11:29:55;5.40;;;2.80;;
17598;SDS011;8918;52.092;5.232;2023-05-19T11:32:27;5.53;;;2.70;;
17598;SDS011;8918;52.092;5.232;2023-05-19T11:34:58;4.78;;;2.50;;
17598;SDS011;8918;52.092;5.232;2023-05-19T11:37:24;4.82;;;2.70;;
17598;SDS011;8918;52.092;5.232;2023-05-19T11:39:50;5.00;;;2.97;;
17598;SDS011;8918;52.092;5.232;2023-05-19T11:42:17;5.03;;;2.40;;
17598;SDS011;8918;52.092;5.232;2023-05-19T11:44:45;6.20;;;2.80;;
17598;SDS011;8918;52.092;5.232;2023-05-19T11:47:12;4.30;;;2.88;;
17598;SDS011;8918;52.092;5.232;2023-05-19T11:49:41;6.43;;;2.70;;
17598;SDS011;8918;52.092;5.232;2023-05-19T11:52:12;7.75;;;2.83;;
17598;SDS011;8918;52.092;5.232;2023-05-19T11:54:38;6.32;;;3.22;;
17598;SDS011;8918;52.092;5.232;2023-05-19T11:57:06;5.45;;;2.85;;
17598;SDS011;8918;52.092;5.232;2023-05-19T11:59:33;6.57;;;2.97;;
17598;SDS011;8918;52.092;5.232;2023-05-19T12:02:25;7.35;;;3.05;;
17598;SDS011;8918;52.092;5.232;2023-05-19T12:04:51;4.63;;;2.72;;
17598;SDS011;8918;52.092;5.232;2023-05-19T12:07:18;7.80;;;3.13;;
17598;SDS011;8918;52.092;5.232;2023-05-19T12:09:47;8.75;;;3.30;;
17598;SDS011;8918;52.092;5.232;2023-05-19T12:12:16;5.22;;;2.67;;
17598;SDS011;8918;52.092;5.232;2023-05-19T12:14:46;5.85;;;2.45;;
17598;SDS011;8918;52.092;5.232;2023-05-19T12:17:14;5.85;;;2.53;;
17598;SDS011;8918;52.092;5.232;2023-05-19T12:19:45;4.90;;;2.35;;
17598;SDS011;8918;52.092;5.232;2023-05-19T12:22:12;4.85;;;2.45;;
17598;SDS011;8918;52.092;5.232;2023-05-19T12:24:39;3.25;;;2.35;;
17598;SDS011;8918;52.092;5.232;2023-05-19T12:27:16;4.38;;;2.42;;
17598;SDS011;8918;52.092;5.232;2023-05-19T12:29:52;6.63;;;3.00;;
17598;SDS011;8918;52.092;5.232;2023-05-19T12:32:27;5.55;;;2.60;;
17598;SDS011;8918;52.092;5.232;2023-05-19T12:34:54;5.95;;;2.67;;
17598;SDS011;8918;52.092;5.232;2023-05-19T12:37:21;4.75;;;2.50;;
17598;SDS011;8918;52.092;5.232;2023-05-19T12:39:47;6.25;;;3.05;;
17598;SDS011;8918;52.092;5.232;2023-05-19T12:42:14;6.45;;;3.05;;
17598;SDS011;8918;52.092;5.232;2023-05-19T12:44:47;5.90;;;2.67;;
17598;SDS011;8918;52.092;5.232;2023-05-19T12:47:17;5.38;;;2.55;;
17598;SDS011;8918;52.092;5.232;2023-05-19T12:52:30;5.30;;;3.42;;
17598;SDS011;8918;52.092;5.232;2023-05-19T12:54:59;4.10;;;3.00;;
17598;SDS011;8918;52.092;5.232;2023-05-19T12:57:26;7.07;;;2.92;;
17598;SDS011;8918;52.092;5.232;2023-05-19T13:00:06;5.90;;;3.58;;
17598;SDS011;8918;52.092;5.232;2023-05-19T13:02:56;7.88;;;3.78;;
17598;SDS011;8918;52.092;5.232;2023-05-19T13:05:27;5.72;;;3.50;;
17598;SDS011;8918;52.092;5.232;2023-05-19T13:08:01;8.85;;;3.78;;
17598;SDS011;8918;52.092;5.232;2023-05-19T13:10:31;5.05;;;3.55;;
17598;SDS011;8918;52.092;5.232;2023-05-19T13:12:58;6.63;;;3.60;;
17598;SDS011;8918;52.092;5.232;2023-05-19T13:15:24;5.57;;;3.63;;
17598;SDS011;8918;52.092;5.232;2023-05-19T13:17:52;7.55;;;3.58;;
17598;SDS011;8918;52.092;5.232;2023-05-19T13:20:18;7.63;;;3.70;;
17598;SDS011;8918;52.092;5.232;2023-05-19T13:22:45;7.30;;;3.72;;
17598;SDS011;8918;52.092;5.232;2023-05-19T13:25:11;5.45;;;3.67;;
17598;SDS011;8918;52.092;5.232;2023-05-19T13:27:36;5.50;;;3.25;;
17598;SDS011;8918;52.092;5.232;2023-05-19T13:30:03;6.13;;;3.67;;
17598;SDS011;8918;52.092;5.232;2023-05-19T13:32:29;6.40;;;3.20;;
17598;SDS011;8918;52.092;5.232;2023-05-19T13:34:55;8.63;;;3.25;;
17598;SDS011;8918;52.092;5.232;2023-05-19T13:37:21;5.80;;;2.85;;
17598;SDS011;8918;52.092;5.232;2023-05-19T13:39:47;7.05;;;3.10;;
17598;SDS011;8918;52.092;5.232;2023-05-19T13:42:12;8.18;;;3.08;;
17598;SDS011;8918;52.092;5.232;2023-05-19T13:44:38;5.70;;;2.67;;
17598;SDS011;8918;52.092;5.232;2023-05-19T13:47:04;5.68;;;3.03;;
17598;SDS011;8918;52.092;5.232;2023-05-19T13:49:29;8.65;;;3.30;;
17598;SDS011;8918;52.092;5.232;2023-05-19T13:51:55;5.07;;;3.17;;
17598;SDS011;8918;52.092;5.232;2023-05-19T13:54:24;5.25;;;2.95;;
17598;SDS011;8918;52.092;5.232;2023-05-19T13:56:50;6.25;;;2.75;;
17598;SDS011;8918;52.092;5.232;2023-05-19T13:59:15;6.15;;;3.20;;
17598;SDS011;8918;52.092;5.232;2023-05-19T14:01:41;5.95;;;2.95;;
17598;SDS011;8918;52.092;5.232;2023-05-19T14:04:07;6.88;;;3.10;;
17598;SDS011;8918;52.092;5.232;2023-05-19T14:06:33;5.70;;;3.08;;
17598;SDS011;8918;52.092;5.232;2023-05-19T14:08:59;6.20;;;2.92;;
17598;SDS011;8918;52.092;5.232;2023-05-19T14:11:24;6.45;;;3.00;;
17598;SDS011;8918;52.092;5.232;2023-05-19T14:13:50;6.38;;;3.15;;
17598;SDS011;8918;52.092;5.232;2023-05-19T14:16:16;6.80;;;2.90;;
17598;SDS011;8918;52.092;5.232;2023-05-19T14:18:42;6.50;;;2.97;;
17598;SDS011;8918;52.092;5.232;2023-05-19T14:21:07;7.72;;;2.97;;
17598;SDS011;8918;52.092;5.232;2023-05-19T14:23:33;6.38;;;3.08;;
17598;SDS011;8918;52.092;5.232;2023-05-19T14:25:59;5.68;;;2.97;;
17598;SDS011;8918;52.092;5.232;2023-05-19T14:28:24;5.22;;;3.15;;
17598;SDS011;8918;52.092;5.232;2023-05-19T14:30:50;8.45;;;3.25;;
17598;SDS011;8918;52.092;5.232;2023-05-19T14:33:16;7.13;;;2.85;;
17598;SDS011;8918;52.092;5.232;2023-05-19T14:35:43;5.57;;;2.97;;
17598;SDS011;8918;52.092;5.232;2023-05-19T14:38:09;5.75;;;3.03;;
17598;SDS011;8918;52.092;5.232;2023-05-19T14:40:38;4.82;;;2.80;;
17598;SDS011;8918;52.092;5.232;2023-05-19T14:43:05;7.60;;;3.00;;
17598;SDS011;8918;52.092;5.232;2023-05-19T14:45:34;4.18;;;2.70;;
17598;SDS011;8918;52.092;5.232;2023-05-19T14:47:59;5.25;;;2.42;;
17598;SDS011;8918;52.092;5.232;2023-05-19T14:50:26;5.82;;;2.80;;
17598;SDS011;8918;52.092;5.232;2023-05-19T14:52:52;6.45;;;3.13;;
17598;SDS011;8918;52.092;5.232;2023-05-19T14:55:17;5.28;;;2.70;;
17598;SDS011;8918;52.092;5.232;2023-05-19T14:57:43;5.90;;;2.50;;
17598;SDS011;8918;52.092;5.232;2023-05-19T15:00:09;5.95;;;2.90;;
17598;SDS011;8918;52.092;5.232;2023-05-19T15:02:35;4.30;;;2.63;;
17598;SDS011;8918;52.092;5.232;2023-05-19T15:05:00;6.53;;;2.85;;
17598;SDS011;8918;52.092;5.232;2023-05-19T15:07:26;5.13;;;2.50;;
17598;SDS011;8918;52.092;5.232;2023-05-19T15:09:52;6.88;;;2.55;;
17598;SDS011;8918;52.092;5.232;2023-05-19T15:12:17;6.68;;;2.92;;
17598;SDS011;8918;52.092;5.232;2023-05-19T15:14:43;5.75;;;3.13;;
17598;SDS011;8918;52.092;5.232;2023-05-19T15:17:09;6.32;;;3.10;;
17598;SDS011;8918;52.092;5.232;2023-05-19T15:19:34;6.68;;;2.88;;
17598;SDS011;8918;52.092;5.232;2023-05-19T15:22:00;5.15;;;2.90;;
17598;SDS011;8918;52.092;5.232;2023-05-19T15:24:26;7.20;;;2.67;;
17598;SDS011;8918;52.092;5.232;2023-05-19T15:26:51;3.85;;;2.50;;
17598;SDS011;8918;52.092;5.232;2023-05-19T15:29:18;6.40;;;2.45;;